Time;durP1;ratioP1;P1;durP2;ratioP2;P2;SDS_P1;SDS_P2;PMS_P1;PMS_P2;Temp;Humidity;BMP_temperature;BMP_pressure;BME280_temperature;BME280_humidity;BME280_pressure;Samples;Min_cycle;Max_cycle;Signal;HPM_P1;HPM_P2
2023/02/17 00:00:50;;;;;;;8.23;6.47;;;;;;;;;;5123244;27;20058;-72
2023/02/17 00:03:16;;;;;;;8.82;6.97;;;;;;;;;;5123998;27;20031;-72
2023/02/17 00:05:43;;;;;;;8.57;6.35;;;;;;;;;;5125585;27;20426;-71
2023/02/17 00:08:09;;;;;;;8.07;6.25;;;;;;;;;;5123613;27;20072;-75
2023/02/17 00:10:35;;;;;;;10.63;6.70;;;;;;;;;;5119483;27;20067;-71
2023/02/17 00:13:01;;;;;;;10.07;5.93;;;;;;;;;;5122761;27;20129;-71
2023/02/17 00:15:27;;;;;;;8.15;6.13;;;;;;;;;;5128307;27;20049;-70
2023/02/17 00:17:53;;;;;;;9.98;6.95;;;;;;;;;;5126136;27;21795;-71
2023/02/17 00:20:20;;;;;;;8.13;6.47;;;;;;;;;;5120360;27;20031;-70
2023/02/17 00:22:46;;;;;;;11.15;6.53;;;;;;;;;;5128322;27;20023;-70
2023/02/17 00:25:12;;;;;;;8.82;6.47;;;;;;;;;;5121788;27;20534;-71
2023/02/17 00:27:38;;;;;;;10.40;6.43;;;;;;;;;;5126424;27;20087;-71
2023/02/17 00:30:05;;;;;;;8.98;6.43;;;;;;;;;;5125616;27;20062;-70
2023/02/17 00:32:31;;;;;;;8.82;5.78;;;;;;;;;;5124768;27;20039;-70
2023/02/17 00:34:57;;;;;;;10.05;7.13;;;;;;;;;;5124314;27;20498;-70
2023/02/17 00:37:24;;;;;;;7.85;5.82;;;;;;;;;;5121165;27;20038;-72
2023/02/17 00:39:50;;;;;;;8.05;5.95;;;;;;;;;;5123675;27;20018;-71
2023/02/17 00:42:17;;;;;;;7.88;5.93;;;;;;;;;;5122183;27;20080;-70
2023/02/17 00:44:43;;;;;;;9.95;5.72;;;;;;;;;;5132524;27;20029;-70
2023/02/17 00:47:09;;;;;;;8.38;5.70;;;;;;;;;;5127264;27;20510;-70
2023/02/17 00:49:35;;;;;;;10.27;6.60;;;;;;;;;;5128572;27;20241;-70
2023/02/17 00:52:01;;;;;;;8.57;6.40;;;;;;;;;;5123009;27;20030;-69
2023/02/17 00:54:28;;;;;;;8.07;5.75;;;;;;;;;;5126358;27;20035;-70
2023/02/17 00:56:55;;;;;;;7.90;6.00;;;;;;;;;;5127260;27;20110;-70
2023/02/17 00:59:21;;;;;;;7.60;5.82;;;;;;;;;;5130217;27;20023;-71
2023/02/17 01:01:47;;;;;;;8.35;6.40;;;;;;;;;;5126106;27;20023;-72
2023/02/17 01:04:13;;;;;;;11.68;6.25;;;;;;;;;;5129031;27;20402;-70
2023/02/17 01:06:40;;;;;;;10.50;6.28;;;;;;;;;;5125972;27;20039;-72
2023/02/17 01:09:07;;;;;;;8.95;6.30;;;;;;;;;;5130347;27;20028;-71
2023/02/17 01:11:34;;;;;;;7.38;6.30;;;;;;;;;;5136282;27;20074;-72
2023/02/17 01:14:01;;;;;;;10.40;7.13;;;;;;;;;;5138997;27;20037;-75
2023/02/17 01:16:29;;;;;;;9.98;6.40;;;;;;;;;;5133046;27;20047;-71
2023/02/17 01:18:55;;;;;;;7.60;6.30;;;;;;;;;;5137498;27;20035;-71
2023/02/17 01:21:26;;;;;;;9.38;6.78;;;;;;;;;;5139749;27;20068;-70
2023/02/17 01:23:53;;;;;;;10.82;6.45;;;;;;;;;;5130434;27;20470;-74
2023/02/17 01:26:20;;;;;;;9.27;6.80;;;;;;;;;;5134097;27;20101;-74
2023/02/17 01:28:47;;;;;;;9.15;6.53;;;;;;;;;;5132754;27;20011;-71
2023/02/17 01:31:13;;;;;;;8.00;5.72;;;;;;;;;;5135345;27;20674;-74
2023/02/17 01:33:40;;;;;;;13.13;6.32;;;;;;;;;;5129942;27;20015;-70
2023/02/17 01:36:07;;;;;;;8.38;6.82;;;;;;;;;;5133513;27;20500;-70
2023/02/17 01:38:34;;;;;;;10.20;6.47;;;;;;;;;;5138955;27;20061;-70
2023/02/17 01:41:01;;;;;;;10.82;6.35;;;;;;;;;;5135869;27;20042;-73
2023/02/17 01:43:27;;;;;;;8.00;6.05;;;;;;;;;;5129205;27;20104;-74
2023/02/17 01:45:57;;;;;;;8.55;6.55;;;;;;;;;;5114011;27;20023;-71
2023/02/17 01:48:25;;;;;;;12.77;5.70;;;;;;;;;;5132471;27;20016;-75
2023/02/17 01:50:58;;;;;;;8.50;6.70;;;;;;;;;;5127705;27;20031;-71
2023/02/17 01:53:33;;;;;;;7.57;6.03;;;;;;;;;;5127433;27;20021;-71
2023/02/17 01:55:59;;;;;;;10.55;6.78;;;;;;;;;;5116691;27;20027;-72
2023/02/17 01:58:26;;;;;;;7.07;5.75;;;;;;;;;;5105645;27;20023;-74
2023/02/17 02:00:52;;;;;;;8.82;6.20;;;;;;;;;;5127459;27;20031;-72
2023/02/17 02:03:19;;;;;;;10.55;7.10;;;;;;;;;;5123314;27;20018;-71
2023/02/17 02:05:45;;;;;;;11.23;6.68;;;;;;;;;;5125538;27;20027;-75
2023/02/17 02:08:12;;;;;;;7.72;5.97;;;;;;;;;;5126633;27;20026;-71
2023/02/17 02:10:38;;;;;;;9.85;6.50;;;;;;;;;;5132822;27;20414;-71
2023/02/17 02:13:04;;;;;;;8.95;6.80;;;;;;;;;;5127683;27;20019;-72
2023/02/17 02:15:53;;;;;;;7.63;6.80;;;;;;;;;;5125620;27;20083;-74
2023/02/17 02:18:34;;;;;;;10.00;6.57;;;;;;;;;;5124447;27;20041;-71
2023/02/17 02:21:13;;;;;;;11.03;6.93;;;;;;;;;;5128226;27;20478;-69
2023/02/17 02:23:42;;;;;;;9.25;6.53;;;;;;;;;;5126730;27;20016;-72
2023/02/17 02:26:24;;;;;;;9.30;7.00;;;;;;;;;;5126271;27;20062;-73
2023/02/17 02:29:14;;;;;;;10.85;6.80;;;;;;;;;;5119091;27;20017;-70
2023/02/17 02:31:59;;;;;;;8.35;6.47;;;;;;;;;;5128602;27;20771;-72
2023/02/17 02:34:28;;;;;;;8.10;6.25;;;;;;;;;;5129694;27;20051;-72
2023/02/17 02:36:57;;;;;;;8.88;6.55;;;;;;;;;;5132420;27;20533;-71
2023/02/17 02:39:25;;;;;;;9.43;6.53;;;;;;;;;;5106922;27;20015;-71
2023/02/17 02:41:56;;;;;;;9.05;6.53;;;;;;;;;;5126682;27;20022;-71
2023/02/17 02:44:22;;;;;;;9.70;6.85;;;;;;;;;;5128546;27;20026;-72
2023/02/17 02:46:59;;;;;;;9.50;7.15;;;;;;;;;;5130444;27;20034;-77
2023/02/17 02:49:26;;;;;;;9.80;6.50;;;;;;;;;;5108437;27;20028;-72
2023/02/17 02:52:10;;;;;;;10.00;6.80;;;;;;;;;;5130184;27;20041;-72
2023/02/17 02:55:06;;;;;;;8.48;6.65;;;;;;;;;;5123570;27;20026;-72
2023/02/17 02:57:39;;;;;;;9.75;6.32;;;;;;;;;;5107152;27;20047;-72
2023/02/17 03:00:05;;;;;;;10.10;6.80;;;;;;;;;;5106387;27;20031;-73
2023/02/17 03:02:37;;;;;;;8.65;6.32;;;;;;;;;;5126320;27;20016;-72
2023/02/17 03:05:38;;;;;;;8.45;6.28;;;;;;;;;;5131212;27;20014;-71
2023/02/17 03:08:39;;;;;;;10.07;6.28;;;;;;;;;;5077199;27;20030;-72
2023/02/17 03:11:05;;;;;;;8.70;6.90;;;;;;;;;;5045989;28;20118;-72
2023/02/17 03:13:33;;;;;;;11.98;6.50;;;;;;;;;;5109660;27;20035;-72
2023/02/17 03:15:59;;;;;;;10.07;6.82;;;;;;;;;;5130109;27;20075;-72
2023/02/17 03:18:25;;;;;;;10.27;7.50;;;;;;;;;;5126053;27;20026;-72
2023/02/17 03:20:54;;;;;;;9.73;6.88;;;;;;;;;;5127469;27;20027;-72
2023/02/17 03:23:20;;;;;;;9.15;6.63;;;;;;;;;;5126907;27;20410;-72
2023/02/17 03:25:46;;;;;;;9.43;7.10;;;;;;;;;;5099786;27;20024;-71
2023/02/17 03:28:13;;;;;;;8.73;6.88;;;;;;;;;;5126379;27;20019;-72
2023/02/17 03:30:39;;;;;;;8.05;6.57;;;;;;;;;;5108591;27;20023;-77
2023/02/17 03:33:05;;;;;;;11.90;6.57;;;;;;;;;;5133952;27;20035;-72
2023/02/17 03:35:32;;;;;;;10.60;7.05;;;;;;;;;;5130081;27;20027;-72
2023/02/17 03:37:58;;;;;;;13.25;6.90;;;;;;;;;;5130307;27;20083;-74
2023/02/17 03:40:24;;;;;;;9.63;6.93;;;;;;;;;;5130524;27;20429;-72
2023/02/17 03:42:50;;;;;;;8.10;6.53;;;;;;;;;;5106894;27;21427;-72
2023/02/17 03:45:16;;;;;;;7.68;6.50;;;;;;;;;;5110089;27;20383;-75
2023/02/17 03:47:42;;;;;;;9.35;6.50;;;;;;;;;;5128260;27;20027;-72
2023/02/17 03:50:09;;;;;;;8.68;6.70;;;;;;;;;;5130848;27;20356;-74
2023/02/17 03:52:35;;;;;;;11.15;6.53;;;;;;;;;;5122232;27;20083;-72
2023/02/17 03:55:01;;;;;;;8.70;6.03;;;;;;;;;;5125179;27;20019;-73
2023/02/17 03:57:27;;;;;;;11.13;6.25;;;;;;;;;;5126610;27;20564;-72
2023/02/17 03:59:53;;;;;;;10.57;6.38;;;;;;;;;;5122949;27;20049;-72
2023/02/17 04:02:20;;;;;;;8.80;6.72;;;;;;;;;;5123512;27;20023;-72
2023/02/17 04:04:46;;;;;;;10.60;6.97;;;;;;;;;;5108361;27;20027;-72
2023/02/17 04:07:12;;;;;;;11.07;7.05;;;;;;;;;;5133287;27;20018;-72
2023/02/17 04:09:38;;;;;;;8.57;6.85;;;;;;;;;;5127679;27;20035;-73
2023/02/17 04:12:04;;;;;;;9.10;6.75;;;;;;;;;;5128655;27;20227;-73
2023/02/17 04:14:31;;;;;;;9.43;7.18;;;;;;;;;;5124169;27;20019;-73
2023/02/17 04:16:57;;;;;;;8.85;6.82;;;;;;;;;;5125487;27;20077;-72
2023/02/17 04:19:23;;;;;;;9.95;7.32;;;;;;;;;;5123708;27;20052;-75
2023/02/17 04:21:49;;;;;;;8.02;6.57;;;;;;;;;;5122179;27;20023;-72
2023/02/17 04:24:15;;;;;;;9.20;7.47;;;;;;;;;;5125133;27;20116;-72
2023/02/17 04:26:41;;;;;;;8.43;6.78;;;;;;;;;;5132778;27;20362;-72
2023/02/17 04:29:07;;;;;;;9.40;7.00;;;;;;;;;;5107249;27;20019;-71
2023/02/17 04:31:33;;;;;;;9.70;6.60;;;;;;;;;;5127451;27;20016;-71
2023/02/17 04:34:00;;;;;;;12.25;7.22;;;;;;;;;;5129105;27;20023;-71
2023/02/17 04:36:26;;;;;;;9.43;6.82;;;;;;;;;;5128015;27;20639;-74
2023/02/17 04:38:52;;;;;;;10.45;7.15;;;;;;;;;;5129618;27;20023;-72
2023/02/17 04:41:18;;;;;;;8.77;6.88;;;;;;;;;;5126641;27;20124;-71
2023/02/17 04:43:44;;;;;;;8.98;6.75;;;;;;;;;;5126948;27;20023;-74
2023/02/17 04:46:10;;;;;;;8.68;6.80;;;;;;;;;;5126222;27;20027;-73
2023/02/17 04:48:37;;;;;;;11.32;7.07;;;;;;;;;;5123921;27;20019;-72
2023/02/17 04:51:03;;;;;;;10.68;7.03;;;;;;;;;;5122626;27;20091;-72
2023/02/17 04:53:30;;;;;;;9.75;6.80;;;;;;;;;;5110022;27;20382;-73
2023/02/17 04:55:56;;;;;;;12.00;7.30;;;;;;;;;;5129654;27;20038;-72
2023/02/17 04:58:22;;;;;;;9.65;7.00;;;;;;;;;;5131848;27;20025;-72
2023/02/17 05:00:49;;;;;;;9.75;7.38;;;;;;;;;;5110934;27;20027;-72
2023/02/17 05:03:15;;;;;;;10.23;6.90;;;;;;;;;;5111982;27;20037;-76
2023/02/17 05:05:41;;;;;;;9.77;7.35;;;;;;;;;;5127024;27;20043;-71
2023/02/17 05:08:07;;;;;;;10.23;6.80;;;;;;;;;;5126852;27;20531;-71
2023/02/17 05:10:34;;;;;;;11.57;7.65;;;;;;;;;;5133393;27;20532;-71
2023/02/17 05:13:01;;;;;;;7.43;6.05;;;;;;;;;;5126935;27;20050;-72
2023/02/17 05:15:27;;;;;;;10.70;6.78;;;;;;;;;;5107307;27;20051;-72
2023/02/17 05:17:53;;;;;;;14.30;7.45;;;;;;;;;;5124757;27;20023;-72
2023/02/17 05:20:19;;;;;;;12.02;7.55;;;;;;;;;;5130782;27;20137;-71
2023/02/17 05:22:45;;;;;;;9.35;6.88;;;;;;;;;;5125601;27;20023;-71
2023/02/17 05:25:12;;;;;;;9.25;7.05;;;;;;;;;;5129961;27;20425;-70
2023/02/17 05:27:38;;;;;;;13.65;6.75;;;;;;;;;;5128926;27;20053;-71
2023/02/17 05:30:04;;;;;;;10.00;6.90;;;;;;;;;;5129999;27;20019;-71
2023/02/17 05:32:30;;;;;;;8.40;6.65;;;;;;;;;;5123887;27;20076;-70
2023/02/17 05:34:57;;;;;;;8.43;6.30;;;;;;;;;;5126223;27;20030;-71
2023/02/17 05:37:23;;;;;;;10.95;6.38;;;;;;;;;;5131016;27;20023;-72
2023/02/17 05:39:49;;;;;;;8.98;6.82;;;;;;;;;;5125806;27;20797;-71
2023/02/17 05:42:15;;;;;;;8.52;6.47;;;;;;;;;;5123490;27;20019;-72
2023/02/17 05:44:41;;;;;;;9.85;6.72;;;;;;;;;;5120897;27;20031;-76
2023/02/17 05:47:07;;;;;;;10.85;7.05;;;;;;;;;;5124174;27;20267;-71
2023/02/17 05:49:33;;;;;;;8.80;6.30;;;;;;;;;;5127251;27;20455;-71
2023/02/17 05:52:00;;;;;;;9.73;6.93;;;;;;;;;;5131251;27;20063;-71
2023/02/17 05:54:26;;;;;;;9.20;6.78;;;;;;;;;;5129859;27;20662;-70
2023/02/17 05:56:52;;;;;;;10.38;6.32;;;;;;;;;;5127042;27;20413;-72
2023/02/17 05:59:18;;;;;;;11.50;7.03;;;;;;;;;;5128191;27;20474;-71
2023/02/17 06:01:44;;;;;;;9.68;6.45;;;;;;;;;;5124220;27;20070;-70
2023/02/17 06:04:10;;;;;;;9.18;6.50;;;;;;;;;;5104238;27;20034;-71
2023/02/17 06:06:36;;;;;;;8.23;6.78;;;;;;;;;;5125423;27;20453;-72
2023/02/17 06:09:03;;;;;;;9.88;6.90;;;;;;;;;;5125725;27;20014;-71
2023/02/17 06:11:29;;;;;;;8.07;6.15;;;;;;;;;;5124777;27;20049;-71
2023/02/17 06:13:55;;;;;;;8.68;6.47;;;;;;;;;;5121915;27;20102;-72
2023/02/17 06:16:21;;;;;;;8.98;6.97;;;;;;;;;;5125829;27;20054;-71
2023/02/17 06:18:47;;;;;;;8.82;6.63;;;;;;;;;;5121932;27;20016;-71
2023/02/17 06:21:14;;;;;;;9.88;6.80;;;;;;;;;;5129971;27;20077;-71
2023/02/17 06:23:40;;;;;;;7.85;6.43;;;;;;;;;;5127156;27;20711;-71
2023/02/17 06:26:06;;;;;;;7.88;6.22;;;;;;;;;;5111174;27;20038;-72
2023/02/17 06:28:32;;;;;;;9.43;6.47;;;;;;;;;;5119563;27;20507;-70
2023/02/17 06:30:58;;;;;;;10.02;7.22;;;;;;;;;;5126247;27;20131;-70
2023/02/17 06:33:25;;;;;;;11.00;7.03;;;;;;;;;;5126463;27;20019;-70
2023/02/17 06:35:51;;;;;;;10.40;7.18;;;;;;;;;;5124618;27;20501;-72
2023/02/17 06:38:17;;;;;;;9.80;7.35;;;;;;;;;;5123704;27;20122;-73
2023/02/17 06:40:44;;;;;;;10.13;7.85;;;;;;;;;;5122341;27;20057;-70
2023/02/17 06:43:10;;;;;;;9.50;7.40;;;;;;;;;;5121375;27;20450;-69
2023/02/17 06:45:36;;;;;;;13.27;9.40;;;;;;;;;;5121891;27;20043;-76
2023/02/17 06:48:02;;;;;;;13.45;9.23;;;;;;;;;;5109445;27;20031;-73
2023/02/17 06:50:28;;;;;;;18.33;9.30;;;;;;;;;;5130540;27;20351;-70
2023/02/17 06:52:54;;;;;;;13.93;9.18;;;;;;;;;;5124584;27;20117;-70
2023/02/17 06:55:21;;;;;;;12.77;9.63;;;;;;;;;;5121290;27;20046;-71
2023/02/17 06:57:47;;;;;;;12.32;9.23;;;;;;;;;;5121897;27;20027;-70
2023/02/17 07:00:13;;;;;;;12.93;8.98;;;;;;;;;;5122684;27;20027;-70
2023/02/17 07:02:39;;;;;;;13.07;8.90;;;;;;;;;;5119151;27;20831;-71
2023/02/17 07:05:07;;;;;;;18.73;11.15;;;;;;;;;;5118661;27;20035;-70
2023/02/17 07:07:33;;;;;;;19.75;12.85;;;;;;;;;;5113954;27;20007;-72
2023/02/17 07:09:59;;;;;;;20.48;13.45;;;;;;;;;;5122996;27;20491;-70
2023/02/17 07:12:27;;;;;;;17.48;12.73;;;;;;;;;;5127418;27;20026;-73
2023/02/17 07:14:53;;;;;;;25.48;12.82;;;;;;;;;;5125487;27;20035;-73
2023/02/17 07:17:19;;;;;;;21.90;14.00;;;;;;;;;;5131442;27;20035;-70
2023/02/17 07:19:45;;;;;;;18.98;13.52;;;;;;;;;;5123221;27;20939;-70
2023/02/17 07:22:11;;;;;;;27.98;13.50;;;;;;;;;;5127101;27;20535;-70
2023/02/17 07:24:38;;;;;;;17.58;12.07;;;;;;;;;;5123737;27;20486;-70
2023/02/17 07:27:07;;;;;;;16.40;11.60;;;;;;;;;;5122908;27;20102;-71
2023/02/17 07:29:33;;;;;;;14.10;10.70;;;;;;;;;;5122759;27;20520;-70
2023/02/17 07:32:00;;;;;;;14.00;8.98;;;;;;;;;;5122557;27;20053;-71
2023/02/17 07:34:26;;;;;;;13.75;9.35;;;;;;;;;;5122904;27;20027;-71
2023/02/17 07:36:52;;;;;;;11.95;8.73;;;;;;;;;;5120546;27;20077;-70
2023/02/17 07:39:18;;;;;;;13.50;9.00;;;;;;;;;;5121320;27;20011;-71
2023/02/17 07:41:45;;;;;;;13.52;10.25;;;;;;;;;;5124554;27;20076;-70
2023/02/17 07:44:11;;;;;;;17.73;10.75;;;;;;;;;;5130143;27;20019;-71
2023/02/17 07:46:38;;;;;;;16.38;10.45;;;;;;;;;;5123864;27;20025;-71
2023/02/17 07:49:04;;;;;;;22.38;11.07;;;;;;;;;;5127956;27;20706;-71
2023/02/17 07:51:31;;;;;;;17.20;10.05;;;;;;;;;;5123838;27;20041;-70
2023/02/17 07:53:57;;;;;;;19.77;12.20;;;;;;;;;;5127162;27;20606;-72
2023/02/17 07:56:24;;;;;;;19.40;10.25;;;;;;;;;;5117116;27;20049;-69
2023/02/17 07:58:50;;;;;;;14.73;9.98;;;;;;;;;;5122193;27;20023;-75
2023/02/17 08:01:21;;;;;;;22.95;11.18;;;;;;;;;;5124189;27;20080;-72
2023/02/17 08:03:48;;;;;;;13.50;9.63;;;;;;;;;;5112460;27;20379;-77
2023/02/17 08:06:15;;;;;;;10.60;8.15;;;;;;;;;;5097186;27;20027;-72
2023/02/17 08:14:12;;;;;;;72.05;42.17;;;;;;;;;;5122883;27;20147;-73
2023/02/17 08:16:40;;;;;;;32.42;19.80;;;;;;;;;;5124384;27;20094;-75
2023/02/17 08:19:06;;;;;;;22.20;14.05;;;;;;;;;;5120844;27;20489;-72
2023/02/17 08:21:33;;;;;;;19.98;12.88;;;;;;;;;;5117344;27;20559;-71
2023/02/17 08:23:59;;;;;;;11.80;9.20;;;;;;;;;;5113046;27;20019;-77
2023/02/17 08:26:26;;;;;;;14.15;8.88;;;;;;;;;;5124746;27;20094;-76
2023/02/17 08:28:52;;;;;;;10.35;8.10;;;;;;;;;;5102642;27;20508;-74
2023/02/17 08:31:24;;;;;;;12.82;9.23;;;;;;;;;;5121219;27;20457;-75
2023/02/17 08:33:51;;;;;;;12.80;8.43;;;;;;;;;;5120391;27;20027;-72
2023/02/17 08:36:19;;;;;;;10.52;8.15;;;;;;;;;;5115323;27;20027;-76
2023/02/17 08:38:49;;;;;;;13.75;9.20;;;;;;;;;;5125704;27;20844;-74
2023/02/17 08:41:16;;;;;;;9.55;7.85;;;;;;;;;;5124580;27;20123;-76
2023/02/17 08:43:43;;;;;;;9.32;7.07;;;;;;;;;;5125952;27;20127;-75
2023/02/17 08:46:10;;;;;;;10.93;7.05;;;;;;;;;;5116795;27;20110;-71
2023/02/17 08:48:36;;;;;;;8.07;6.55;;;;;;;;;;5121933;27;20490;-74
2023/02/17 08:51:02;;;;;;;7.45;6.28;;;;;;;;;;5120011;27;20111;-74
2023/02/17 08:53:29;;;;;;;7.38;5.75;;;;;;;;;;5123267;27;20035;-74
2023/02/17 08:55:55;;;;;;;7.70;5.88;;;;;;;;;;5118876;27;20029;-71
2023/02/17 08:58:21;;;;;;;6.72;5.63;;;;;;;;;;5123258;27;20539;-75
2023/02/17 09:00:47;;;;;;;6.57;5.35;;;;;;;;;;5115281;27;20023;-76
2023/02/17 09:03:13;;;;;;;6.75;5.97;;;;;;;;;;5120585;27;20023;-75
2023/02/17 09:05:40;;;;;;;6.68;5.97;;;;;;;;;;5125266;27;20019;-74
2023/02/17 09:08:06;;;;;;;10.73;6.93;;;;;;;;;;5114997;27;20027;-74
2023/02/17 09:10:32;;;;;;;9.63;7.07;;;;;;;;;;5124887;27;20031;-73
2023/02/17 09:12:58;;;;;;;7.63;5.85;;;;;;;;;;5127325;27;20038;-71
2023/02/17 09:15:25;;;;;;;8.57;6.03;;;;;;;;;;5123968;27;20043;-71
2023/02/17 09:17:51;;;;;;;9.85;7.18;;;;;;;;;;5124048;27;20927;-72
2023/02/17 09:20:18;;;;;;;8.00;6.90;;;;;;;;;;5126507;27;20026;-75
2023/02/17 09:22:44;;;;;;;9.85;7.75;;;;;;;;;;5125331;27;20050;-72
2023/02/17 09:25:10;;;;;;;8.80;6.80;;;;;;;;;;5121765;27;20019;-73
2023/02/17 09:27:36;;;;;;;8.65;6.90;;;;;;;;;;5097687;27;20152;-76
2023/02/17 09:30:03;;;;;;;9.82;7.50;;;;;;;;;;5124346;27;20018;-71
2023/02/17 09:32:29;;;;;;;10.43;8.00;;;;;;;;;;5126278;27;20025;-76
2023/02/17 09:34:55;;;;;;;16.67;12.93;;;;;;;;;;5132556;27;20420;-76
2023/02/17 09:37:22;;;;;;;20.75;13.45;;;;;;;;;;5127972;27;20534;-75
2023/02/17 09:39:48;;;;;;;19.45;10.50;;;;;;;;;;5125411;27;20029;-75
2023/02/17 09:42:19;;;;;;;12.82;8.85;;;;;;;;;;5125591;27;20742;-76
2023/02/17 09:44:48;;;;;;;11.50;8.25;;;;;;;;;;5129582;27;20042;-75
2023/02/17 09:47:20;;;;;;;10.60;8.32;;;;;;;;;;5132501;27;20023;-76
2023/02/17 09:49:50;;;;;;;10.05;7.82;;;;;;;;;;5126886;27;20023;-76
2023/02/17 09:52:32;;;;;;;10.65;7.03;;;;;;;;;;5125092;27;20031;-76
2023/02/17 09:54:58;;;;;;;;;;;;;;;;;;5116310;27;20127;-77
2023/02/17 09:57:27;;;;;;;10.85;7.53;;;;;;;;;;5125721;27;19990;-76
2023/02/17 10:00:07;;;;;;;11.82;7.50;;;;;;;;;;5132100;27;20026;-76
2023/02/17 10:02:40;;;;;;;10.35;7.32;;;;;;;;;;5123509;27;20088;-76
2023/02/17 10:05:08;;;;;;;9.63;7.13;;;;;;;;;;5130428;27;20011;-75
2023/02/17 10:07:54;;;;;;;9.88;7.40;;;;;;;;;;5128387;27;20519;-76
2023/02/17 10:10:25;;;;;;;9.90;7.00;;;;;;;;;;5128822;27;20059;-76
2023/02/17 10:12:54;;;;;;;10.50;7.97;;;;;;;;;;5123202;27;20496;-72
2023/02/17 10:15:23;;;;;;;10.20;8.00;;;;;;;;;;5121110;27;20047;-71
2023/02/17 10:17:55;;;;;;;10.52;8.23;;;;;;;;;;5122775;27;20482;-75
2023/02/17 10:20:33;;;;;;;8.48;6.43;;;;;;;;;;5122337;27;20370;-76
2023/02/17 10:23:04;;;;;;;8.65;6.00;;;;;;;;;;5107829;27;20034;-74
2023/02/17 10:25:38;;;;;;;6.88;5.30;;;;;;;;;;5123934;27;20015;-74
2023/02/17 10:28:09;;;;;;;5.90;5.28;;;;;;;;;;5129190;27;20011;-77
2023/02/17 10:30:35;;;;;;;7.45;5.35;;;;;;;;;;5120840;27;20023;-72
2023/02/17 10:33:03;;;;;;;7.45;5.28;;;;;;;;;;5120677;27;20029;-74
2023/02/17 10:35:50;;;;;;;5.75;4.80;;;;;;;;;;5125651;27;20106;-77
2023/02/17 10:38:17;;;;;;;6.75;5.78;;;;;;;;;;5117314;27;20023;-76
2023/02/17 10:40:46;;;;;;;7.60;5.22;;;;;;;;;;5123139;27;20027;-76
2023/02/17 10:43:15;;;;;;;5.95;5.20;;;;;;;;;;5106608;27;20023;-78
2023/02/17 10:45:43;;;;;;;10.52;5.63;;;;;;;;;;5126029;27;20019;-75
2023/02/17 10:48:12;;;;;;;8.25;5.43;;;;;;;;;;5121465;27;20106;-75
2023/02/17 10:50:40;;;;;;;9.27;7.35;;;;;;;;;;5128436;27;20057;-76
2023/02/17 10:53:18;;;;;;;8.48;6.85;;;;;;;;;;5120581;27;20097;-77
2023/02/17 10:55:57;;;;;;;12.63;6.93;;;;;;;;;;5119120;27;20035;-75
2023/02/17 10:58:35;;;;;;;9.68;7.40;;;;;;;;;;5119534;27;20015;-74
2023/02/17 11:01:04;;;;;;;9.95;7.85;;;;;;;;;;5118619;27;20020;-74
2023/02/17 11:03:31;;;;;;;9.05;6.47;;;;;;;;;;5101586;27;20008;-73
2023/02/17 11:06:01;;;;;;;8.82;6.68;;;;;;;;;;5122013;27;20031;-72
2023/02/17 11:08:28;;;;;;;7.68;6.57;;;;;;;;;;5119968;27;20079;-77
2023/02/17 11:11:05;;;;;;;9.13;6.50;;;;;;;;;;5125259;27;20026;-76
2023/02/17 11:13:34;;;;;;;8.65;6.60;;;;;;;;;;5115331;27;20027;-75
2023/02/17 11:16:00;;;;;;;6.57;5.88;;;;;;;;;;5119133;27;20070;-77
2023/02/17 11:18:28;;;;;;;6.93;5.90;;;;;;;;;;5118975;27;20019;-75
2023/02/17 11:21:05;;;;;;;7.70;6.28;;;;;;;;;;5123097;27;20749;-77
2023/02/17 11:23:32;;;;;;;9.52;6.55;;;;;;;;;;5124220;27;20102;-76
2023/02/17 11:26:08;;;;;;;7.97;5.97;;;;;;;;;;5123753;27;20478;-76
2023/02/17 11:28:34;;;;;;;9.40;7.10;;;;;;;;;;5129884;27;20474;-71
2023/02/17 11:31:05;;;;;;;7.93;5.88;;;;;;;;;;5126703;27;20356;-72
2023/02/17 11:33:33;;;;;;;7.90;5.90;;;;;;;;;;5121326;27;20021;-71
2023/02/17 11:36:00;;;;;;;7.03;5.50;;;;;;;;;;5138952;27;20035;-74
2023/02/17 11:38:46;;;;;;;5.07;4.57;;;;;;;;;;5121625;27;20102;-73
2023/02/17 11:41:13;;;;;;;6.78;4.95;;;;;;;;;;5116187;27;20055;-71
2023/02/17 11:43:39;;;;;;;6.85;4.72;;;;;;;;;;5120515;27;20031;-72
2023/02/17 11:46:17;;;;;;;6.32;5.05;;;;;;;;;;5112923;27;20034;-73
2023/02/17 11:48:50;;;;;;;6.13;4.10;;;;;;;;;;5122722;27;20047;-72
2023/02/17 11:51:26;;;;;;;7.00;4.90;;;;;;;;;;5120862;27;20020;-73
2023/02/17 11:53:59;;;;;;;6.70;4.30;;;;;;;;;;5137027;27;20048;-80
2023/02/17 11:56:30;;;;;;;5.72;4.85;;;;;;;;;;5126756;27;20102;-70
2023/02/17 11:58:56;;;;;;;6.97;4.80;;;;;;;;;;5130626;27;20039;-72
2023/02/17 12:01:32;;;;;;;5.45;4.20;;;;;;;;;;5123326;27;20023;-70
2023/02/17 12:04:07;;;;;;;7.50;4.55;;;;;;;;;;5121560;27;20015;-72
2023/02/17 12:06:39;;;;;;;6.70;5.05;;;;;;;;;;5128441;27;20019;-72
2023/02/17 12:09:17;;;;;;;4.70;4.20;;;;;;;;;;5121347;27;20047;-77
2023/02/17 12:11:58;;;;;;;5.90;4.50;;;;;;;;;;5121494;27;20023;-77
2023/02/17 12:14:42;;;;;;;5.38;4.30;;;;;;;;;;5124848;27;20034;-72
2023/02/17 12:17:08;;;;;;;5.55;4.30;;;;;;;;;;5118478;27;20505;-72
2023/02/17 12:19:41;;;;;;;4.68;3.70;;;;;;;;;;5115872;27;20030;-78
2023/02/17 12:22:13;;;;;;;5.35;4.85;;;;;;;;;;5119857;27;20019;-71
2023/02/17 12:24:39;;;;;;;;;;;;;;;;;;5107576;27;20038;-77
2023/02/17 12:27:37;;;;;;;5.40;3.85;;;;;;;;;;5124813;27;19911;-71
2023/02/17 12:30:04;;;;;;;7.57;4.38;;;;;;;;;;5069597;27;20607;-73
2023/02/17 12:32:49;;;;;;;6.57;4.45;;;;;;;;;;5119886;27;20035;-76
2023/02/17 12:35:22;;;;;;;7.07;3.65;;;;;;;;;;5116113;27;20030;-78
2023/02/17 12:37:58;;;;;;;4.60;3.30;;;;;;;;;;5122372;27;20038;-78
2023/02/17 12:40:36;;;;;;;4.95;3.67;;;;;;;;;;5099078;28;20399;-73
2023/02/17 12:43:22;;;;;;;6.90;3.88;;;;;;;;;;5124310;27;20046;-76
2023/02/17 12:45:48;;;;;;;8.15;4.38;;;;;;;;;;5107507;27;20550;-77
2023/02/17 12:48:15;;;;;;;5.10;3.55;;;;;;;;;;5118271;27;20031;-73
2023/02/17 12:51:01;;;;;;;5.32;3.70;;;;;;;;;;5126559;27;20019;-71
2023/02/17 12:53:45;;;;;;;4.70;3.75;;;;;;;;;;5113326;27;20453;-71
2023/02/17 12:56:38;;;;;;;5.97;4.35;;;;;;;;;;5127927;27;20023;-71
2023/02/17 12:59:31;;;;;;;6.57;4.05;;;;;;;;;;5127052;27;20031;-75
2023/02/17 13:02:05;;;;;;;6.40;3.88;;;;;;;;;;5098189;27;20434;-71
2023/02/17 13:04:33;;;;;;;5.50;3.70;;;;;;;;;;5128217;27;20015;-72
2023/02/17 13:07:03;;;;;;;4.43;3.70;;;;;;;;;;5124694;27;20093;-75
2023/02/17 13:09:32;;;;;;;4.43;3.45;;;;;;;;;;5129040;27;20026;-77
2023/02/17 13:12:08;;;;;;;5.60;3.70;;;;;;;;;;5141052;27;20018;-75
2023/02/17 13:14:45;;;;;;;6.70;4.30;;;;;;;;;;5120111;27;20024;-77
2023/02/17 13:17:29;;;;;;;8.00;3.97;;;;;;;;;;5117188;27;20127;-72
2023/02/17 13:20:11;;;;;;;5.15;3.65;;;;;;;;;;5127813;27;20047;-76
2023/02/17 13:22:37;;;;;;;7.77;3.60;;;;;;;;;;5130082;27;20467;-74
2023/02/17 13:25:04;;;;;;;5.25;4.13;;;;;;;;;;5140028;27;20669;-75
2023/02/17 13:27:32;;;;;;;6.75;3.78;;;;;;;;;;5109436;27;20414;-78
2023/02/17 13:30:01;;;;;;;4.70;3.78;;;;;;;;;;5137946;27;20483;-71
2023/02/17 13:32:28;;;;;;;5.30;3.78;;;;;;;;;;5110644;27;20055;-77
2023/02/17 13:35:17;;;;;;;5.18;3.53;;;;;;;;;;5126182;27;20023;-72
2023/02/17 13:37:45;;;;;;;5.35;3.65;;;;;;;;;;5130999;27;20034;-76
2023/02/17 13:40:17;;;;;;;7.00;3.78;;;;;;;;;;5118912;27;20052;-74
2023/02/17 13:42:43;;;;;;;;;;;;;;;;;;5133619;27;20029;-77
2023/02/17 13:45:15;;;;;;;7.07;4.53;;;;;;;;;;5136619;27;19907;-71
2023/02/17 13:47:41;;;;;;;;;;;;;;;;;;5127737;27;20027;-71
2023/02/17 13:50:26;;;;;;;4.50;3.60;;;;;;;;;;5104414;27;19915;-70
2023/02/17 13:52:53;;;;;;;4.82;3.92;;;;;;;;;;5125417;27;20453;-72
2023/02/17 13:55:19;;;;;;;7.85;3.60;;;;;;;;;;5130641;27;20062;-71
2023/02/17 13:57:51;;;;;;;5.40;3.90;;;;;;;;;;5135434;27;20441;-70
2023/02/17 14:00:21;;;;;;;5.30;3.78;;;;;;;;;;5128267;27;20037;-72
2023/02/17 14:02:49;;;;;;;5.07;3.67;;;;;;;;;;5123448;27;20027;-74
2023/02/17 14:05:17;;;;;;;4.70;4.13;;;;;;;;;;5128421;27;20099;-78
2023/02/17 14:07:46;;;;;;;4.60;3.92;;;;;;;;;;5115916;27;20033;-72
2023/02/17 14:10:25;;;;;;;5.30;3.90;;;;;;;;;;5135133;27;20027;-71
2023/02/17 14:12:52;;;;;;;7.05;3.90;;;;;;;;;;5126881;27;20155;-77
2023/02/17 14:15:19;;;;;;;5.63;4.20;;;;;;;;;;5122054;27;20537;-78
2023/02/17 14:17:46;;;;;;;5.15;4.03;;;;;;;;;;5126325;27;20031;-75
2023/02/17 14:20:27;;;;;;;5.82;3.90;;;;;;;;;;5127985;27;20024;-74
2023/02/17 14:23:00;;;;;;;7.57;4.13;;;;;;;;;;5124880;27;20110;-73
2023/02/17 14:25:28;;;;;;;5.65;3.78;;;;;;;;;;5123675;27;20072;-72
2023/02/17 14:27:55;;;;;;;8.23;3.63;;;;;;;;;;5117512;27;20019;-72
2023/02/17 14:30:32;;;;;;;5.97;3.50;;;;;;;;;;5113147;27;20035;-71
2023/02/17 14:33:17;;;;;;;8.73;4.40;;;;;;;;;;5122895;27;20042;-71
2023/02/17 14:35:50;;;;;;;9.52;3.50;;;;;;;;;;5119611;27;20031;-71
2023/02/17 14:38:37;;;;;;;4.80;3.80;;;;;;;;;;5135452;27;20110;-72
2023/02/17 14:41:09;;;;;;;5.20;4.18;;;;;;;;;;5117969;27;20016;-71
2023/02/17 14:43:35;;;;;;;5.63;4.20;;;;;;;;;;5118916;27;20022;-74
2023/02/17 14:46:02;;;;;;;4.88;3.78;;;;;;;;;;5125622;27;20495;-74
2023/02/17 14:48:28;;;;;;;6.45;4.50;;;;;;;;;;5122155;27;20030;-74
2023/02/17 14:50:55;;;;;;;7.63;3.97;;;;;;;;;;5123543;27;20020;-73
2023/02/17 14:53:35;;;;;;;5.50;3.95;;;;;;;;;;5130241;27;20039;-74
2023/02/17 14:56:14;;;;;;;5.03;3.83;;;;;;;;;;5131149;27;20023;-72